Time;durP1;ratioP1;P1;durP2;ratioP2;P2;SDS_P1;SDS_P2;PMS_P1;PMS_P2;Temp;Humidity;BMP_temperature;BMP_pressure;BME280_temperature;BME280_humidity;BME280_pressure;Samples;Min_cycle;Max_cycle;Signal;HPM_P1;HPM_P2
2023/09/03 00:00:12;;;;;;;8.50;7.60;;;;;;;25.05;41.91;95616.50;6062222;28;108892;-64
2023/09/03 00:03:15;;;;;;;8.50;7.90;;;;;;;24.66;42.36;95619.13;6050305;28;108982;-64
2023/09/03 00:06:20;;;;;;;9.25;8.45;;;;;;;24.84;42.25;95617.34;6060884;28;108931;-64
2023/09/03 00:09:23;;;;;;;9.17;8.47;;;;;;;24.96;42.10;95621.03;6060976;28;108884;-65
2023/09/03 00:12:26;;;;;;;9.60;8.70;;;;;;;25.00;41.59;95616.63;6060015;28;111279;-66
2023/09/03 00:15:29;;;;;;;9.30;8.60;;;;;;;24.81;42.26;95617.97;6047993;28;108851;-69
2023/09/03 00:18:33;;;;;;;9.90;9.10;;;;;;;24.87;42.29;95622.13;6054024;28;108740;-71
2023/09/03 00:21:37;;;;;;;8.90;8.30;;;;;;;25.06;41.70;95618.09;6062736;28;108715;-70
2023/09/03 00:24:41;;;;;;;9.40;8.70;;;;;;;25.15;41.73;95619.97;6062507;28;108870;-69
2023/09/03 00:27:44;;;;;;;9.80;9.00;;;;;;;25.19;41.51;95615.56;6051539;28;108891;-69
2023/09/03 00:30:47;;;;;;;9.63;8.82;;;;;;;25.18;41.84;95619.34;6062448;28;108786;-72
2023/09/03 00:33:50;;;;;;;9.20;8.50;;;;;;;25.15;41.63;95626.13;6054721;28;108812;-71
2023/09/03 00:36:54;;;;;;;8.90;8.20;;;;;;;25.20;41.52;95617.94;6050170;28;108769;-70
2023/09/03 00:39:57;;;;;;;9.50;8.70;;;;;;;25.24;41.49;95620.81;6056375;28;108720;-70
2023/09/03 00:43:01;;;;;;;9.10;8.40;;;;;;;25.26;41.50;95618.59;6061969;28;108672;-71
2023/09/03 00:46:07;;;;;;;9.60;8.80;;;;;;;25.29;41.30;95626.00;6061560;28;109081;-71
2023/09/03 00:49:11;;;;;;;9.20;8.40;;;;;;;25.24;41.32;95618.13;6050879;28;108775;-71
2023/09/03 00:52:19;;;;;;;9.40;8.60;;;;;;;25.18;41.51;95619.34;6062538;28;108805;-73
2023/09/03 00:55:23;;;;;;;9.25;8.50;;;;;;;25.17;41.73;95617.78;6061811;28;109073;-71
2023/09/03 00:58:27;;;;;;;8.98;8.18;;;;;;;25.05;41.91;95600.44;6065590;28;108971;-71
2023/09/03 01:01:31;;;;;;;8.85;8.15;;;;;;;25.17;41.38;95607.06;6055731;28;108885;-71
2023/09/03 01:04:34;;;;;;;8.20;7.60;;;;;;;25.22;41.58;95604.25;6065023;28;110759;-71
2023/09/03 01:07:38;;;;;;;9.00;8.30;;;;;;;25.22;41.45;95605.06;6064767;28;108692;-70
2023/09/03 01:10:49;;;;;;;8.90;8.30;;;;;;;25.26;41.62;95610.56;6059317;28;110628;-66
2023/09/03 01:14:01;;;;;;;8.45;7.75;;;;;;;25.26;41.35;95600.63;6059000;28;109082;-71
2023/09/03 01:17:09;;;;;;;8.48;7.88;;;;;;;25.29;41.58;95605.38;6064012;28;109112;-71
2023/09/03 01:20:17;;;;;;;8.63;8.03;;;;;;;25.28;41.32;95595.75;6065852;28;108763;-71
2023/09/03 01:23:34;;;;;;;8.88;8.18;;;;;;;25.30;41.62;95600.78;6053021;28;110220;-71
2023/09/03 01:26:54;;;;;;;8.52;7.93;;;;;;;25.32;41.40;95606.63;6064437;28;108749;-71
2023/09/03 01:30:01;;;;;;;8.68;7.97;;;;;;;25.28;41.67;95605.69;6063836;28;108930;-70
2023/09/03 01:33:05;;;;;;;8.40;7.70;;;;;;;25.29;41.43;95602.69;6065412;28;108928;-71
2023/09/03 01:36:09;;;;;;;9.32;8.52;;;;;;;25.27;41.57;95602.22;6053500;28;108893;-71
2023/09/03 01:39:13;;;;;;;8.65;7.95;;;;;;;25.26;41.77;95599.84;6057053;28;108785;-68
2023/09/03 01:42:16;;;;;;;9.18;8.50;;;;;;;25.23;42.01;95597.81;6062918;28;108691;-68
2023/09/03 01:45:23;;;;;;;8.50;7.80;;;;;;;25.21;42.02;95594.66;6051194;28;108895;-71
2023/09/03 01:48:36;;;;;;;8.60;7.90;;;;;;;25.13;42.05;95595.41;6068359;28;108936;-68
2023/09/03 01:51:45;;;;;;;9.15;8.35;;;;;;;25.17;41.54;95593.66;6061304;28;108725;-68
2023/09/03 01:54:52;;;;;;;8.57;7.97;;;;;;;25.15;41.81;95593.19;6065041;28;110077;-68
2023/09/03 01:58:01;;;;;;;9.00;8.30;;;;;;;25.20;41.91;95601.06;6052688;28;110191;-67
2023/09/03 02:01:07;;;;;;;8.90;8.30;;;;;;;25.13;42.27;95598.88;6063593;28;108991;-67
2023/09/03 02:04:10;;;;;;;8.30;7.70;;;;;;;25.11;41.93;95600.28;6071497;28;108856;-67
2023/09/03 02:07:15;;;;;;;8.35;7.75;;;;;;;25.11;42.20;95597.59;6066642;28;108794;-67
2023/09/03 02:10:18;;;;;;;9.10;8.40;;;;;;;25.08;42.19;95605.16;6053411;28;109255;-68
2023/09/03 02:13:21;;;;;;;8.63;8.02;;;;;;;25.08;42.20;95599.81;6063930;28;108716;-68
2023/09/03 02:16:26;;;;;;;8.52;7.80;;;;;;;25.00;42.34;95597.09;6059846;28;109129;-69
2023/09/03 02:19:29;;;;;;;8.80;8.13;;;;;;;25.04;42.14;95606.91;6056046;28;109780;-67
2023/09/03 02:22:32;;;;;;;8.53;7.83;;;;;;;25.03;42.11;95599.97;6063779;28;109083;-68
2023/09/03 02:25:35;;;;;;;8.17;7.57;;;;;;;25.01;41.78;95596.78;6064530;28;108892;-68
2023/09/03 02:28:39;;;;;;;8.40;7.80;;;;;;;24.97;41.90;95601.19;6064205;28;108892;-68
2023/09/03 02:31:44;;;;;;;8.00;7.40;;;;;;;24.95;41.89;95598.03;6053193;28;108848;-70
2023/09/03 02:34:47;;;;;;;8.40;7.80;;;;;;;24.78;41.90;95593.41;6064510;28;108926;-68
2023/09/03 02:37:50;;;;;;;8.10;7.50;;;;;;;24.86;42.05;95597.19;6064036;28;108999;-68
2023/09/03 02:40:55;;;;;;;8.52;7.82;;;;;;;24.89;41.99;95595.81;6064509;28;108691;-68
2023/09/03 02:43:58;;;;;;;8.23;7.63;;;;;;;24.90;41.73;95598.19;6052347;28;108974;-68
2023/09/03 02:47:03;;;;;;;8.50;7.90;;;;;;;24.82;41.72;95598.13;6062459;28;108828;-68
2023/09/03 02:50:07;;;;;;;7.90;7.30;;;;;;;24.47;42.45;95606.78;6063363;28;108996;-68
2023/09/03 02:53:10;;;;;;;8.90;8.20;;;;;;;24.29;42.98;95609.66;6058430;28;108782;-69
2023/09/03 02:56:16;;;;;;;8.80;8.10;;;;;;;24.50;42.44;95606.16;6057052;28;109003;-69
2023/09/03 02:59:20;;;;;;;8.52;7.82;;;;;;;24.70;42.21;95612.13;6063495;28;109186;-68
2023/09/03 03:02:24;;;;;;;8.50;7.80;;;;;;;24.67;42.84;95610.00;6061080;28;109396;-67
2023/09/03 03:05:27;;;;;;;8.40;7.80;;;;;;;24.70;42.21;95612.91;6053299;28;108836;-66
2023/09/03 03:08:31;;;;;;;9.15;8.38;;;;;;;24.69;42.40;95610.50;6061423;28;108769;-67
2023/09/03 03:11:34;;;;;;;9.50;8.65;;;;;;;24.28;42.93;95602.72;6059972;28;109035;-68
2023/09/03 03:14:37;;;;;;;8.80;8.00;;;;;;;24.32;43.07;95599.13;6061557;28;109226;-68
2023/09/03 03:17:41;;;;;;;8.57;7.87;;;;;;;24.55;42.86;95596.44;6051647;28;109002;-68
2023/09/03 03:20:44;;;;;;;8.88;8.18;;;;;;;24.69;42.16;95583.75;6061625;28;109063;-68
2023/09/03 03:23:49;;;;;;;9.93;8.93;;;;;;;24.67;42.17;95592.06;6062976;28;108833;-68
2023/09/03 03:26:52;;;;;;;8.68;7.97;;;;;;;24.69;42.23;95597.13;6060449;28;108787;-68
2023/09/03 03:29:56;;;;;;;8.57;7.97;;;;;;;24.75;41.68;95585.22;6054059;28;108755;-68
2023/09/03 03:33:00;;;;;;;8.52;7.82;;;;;;;24.77;41.84;95589.16;6061703;28;109047;-67
2023/09/03 03:36:04;;;;;;;8.48;7.78;;;;;;;24.77;41.98;95586.47;6062120;28;108803;-67
2023/09/03 03:39:08;;;;;;;8.80;8.10;;;;;;;24.60;42.28;95598.97;6051751;28;108829;-67
2023/09/03 03:42:11;;;;;;;8.37;7.77;;;;;;;24.55;42.16;95597.22;6055710;28;109142;-67
2023/09/03 03:45:14;;;;;;;8.55;7.95;;;;;;;24.62;42.13;95596.78;6061589;28;108952;-67
2023/09/03 03:48:18;;;;;;;8.82;8.20;;;;;;;24.65;41.84;95599.63;6062351;28;109235;-66
2023/09/03 03:51:22;;;;;;;8.90;8.20;;;;;;;24.65;41.81;95591.59;6051432;28;110288;-67
2023/09/03 03:54:25;;;;;;;8.35;7.75;;;;;;;24.69;41.81;95594.47;6062214;28;109153;-66
2023/09/03 03:57:28;;;;;;;8.88;8.00;;;;;;;24.76;41.68;95594.81;6063481;28;109117;-66
2023/09/03 04:00:32;;;;;;;8.73;8.05;;;;;;;24.72;41.82;95596.53;6059308;28;108781;-66
2023/09/03 04:03:36;;;;;;;8.38;7.68;;;;;;;24.56;41.98;95592.66;6050470;28;108963;-67
2023/09/03 04:06:39;;;;;;;8.70;8.00;;;;;;;24.70;41.73;95588.81;6061864;28;109420;-67
2023/09/03 04:09:42;;;;;;;8.70;8.00;;;;;;;24.74;41.90;95597.03;6062133;28;108739;-66
2023/09/03 04:12:46;;;;;;;8.23;7.53;;;;;;;24.71;41.96;95611.81;6055596;28;108974;-66
2023/09/03 04:15:49;;;;;;;8.50;7.80;;;;;;;24.82;41.66;95606.97;6054682;28;109973;-67
2023/09/03 04:18:53;;;;;;;9.20;8.50;;;;;;;24.94;41.56;95599.13;6061291;28;109047;-67
2023/09/03 04:21:56;;;;;;;9.90;9.00;;;;;;;24.98;41.86;95610.78;6062111;28;108979;-64
2023/09/03 04:24:59;;;;;;;10.50;9.70;;;;;;;24.93;41.89;95602.91;6047789;28;109209;-66
2023/09/03 04:28:03;;;;;;;9.60;8.80;;;;;;;24.78;41.89;95606.00;6055533;28;109179;-67
2023/09/03 04:31:08;;;;;;;9.67;8.87;;;;;;;24.33;42.93;95602.59;6062460;28;109162;-67
2023/09/03 04:34:13;;;;;;;9.73;8.73;;;;;;;24.54;42.74;95597.53;6065370;28;108736;-66
2023/09/03 04:37:16;;;;;;;9.10;8.40;;;;;;;24.61;42.53;95600.53;6055882;28;110750;-66
2023/09/03 04:40:19;;;;;;;8.70;8.10;;;;;;;24.57;42.48;95594.25;6065325;28;108744;-67
2023/09/03 04:43:24;;;;;;;9.35;8.55;;;;;;;24.30;42.85;95597.88;6064826;28;108710;-67
2023/09/03 04:46:28;;;;;;;10.00;9.10;;;;;;;23.50;44.95;95594.88;6060090;28;108937;-69
2023/09/03 04:49:33;;;;;;;9.98;9.18;;;;;;;22.77;46.90;95597.72;6059341;28;109719;-67
2023/09/03 04:52:37;;;;;;;10.60;9.70;;;;;;;22.44;47.51;95597.75;6064488;28;109065;-67
2023/09/03 04:55:41;;;;;;;9.60;8.80;;;;;;;22.86;46.64;95590.63;6064966;28;110260;-67
2023/09/03 04:58:44;;;;;;;10.20;9.30;;;;;;;22.91;46.56;95587.84;6054328;28;108803;-69
2023/09/03 05:01:47;;;;;;;14.03;10.30;;;;;;;22.75;47.48;95583.88;6060130;28;109144;-69
2023/09/03 05:04:52;;;;;;;10.35;9.35;;;;;;;22.17;49.17;95577.16;6064796;28;108723;-69
2023/09/03 05:07:55;;;;;;;11.00;10.00;;;;;;;22.10;48.91;95569.53;6065155;28;108851;-69
2023/09/03 05:10:58;;;;;;;10.20;9.30;;;;;;;22.70;47.96;95580.22;6053837;28;109670;-69
2023/09/03 05:14:01;;;;;;;11.83;10.63;;;;;;;22.72;47.66;95576.47;6064644;28;109098;-69
2023/09/03 05:17:04;;;;;;;10.77;9.88;;;;;;;22.45;48.72;95572.66;6063008;28;108737;-71
2023/09/03 05:20:10;;;;;;;11.23;10.32;;;;;;;22.45;48.48;95564.66;6065552;28;108681;-70
2023/09/03 05:23:13;;;;;;;11.95;10.85;;;;;;;22.42;48.44;95558.03;6042676;28;109965;-69
2023/09/03 05:26:16;;;;;;;17.20;15.43;;;;;;;23.07;47.37;95569.63;6054561;28;109059;-69
2023/09/03 05:29:19;;;;;;;13.20;10.97;;;;;;;23.47;45.99;95570.66;6065614;28;108917;-69
2023/09/03 05:32:22;;;;;;;11.13;10.13;;;;;;;23.75;45.19;95571.38;6057299;28;109312;-71
2023/09/03 05:35:27;;;;;;;11.60;10.40;;;;;;;23.88;45.21;95565.97;6058535;28;108862;-67
2023/09/03 05:38:30;;;;;;;11.57;10.57;;;;;;;23.43;46.76;95573.16;6065522;28;108737;-69
2023/09/03 05:41:33;;;;;;;11.20;10.10;;;;;;;23.77;46.87;95572.63;6065224;28;109243;-69
2023/09/03 05:44:37;;;;;;;10.50;9.52;;;;;;;24.04;46.47;95571.75;6052800;28;109020;-69
2023/09/03 05:47:40;;;;;;;12.23;11.02;;;;;;;24.06;46.96;95574.91;6064277;28;108915;-70
2023/09/03 05:50:44;;;;;;;13.40;10.82;;;;;;;24.12;47.22;95580.94;6065030;28;109067;-70
2023/09/03 05:53:48;;;;;;;25.40;11.20;;;;;;;24.35;47.26;95587.03;6065104;28;108988;-67
2023/09/03 05:56:51;;;;;;;16.50;10.80;;;;;;;24.52;46.91;95584.44;6053945;28;109220;-68
2023/09/03 05:59:54;;;;;;;15.13;10.02;;;;;;;24.74;46.15;95583.63;6064952;28;108711;-68
2023/09/03 06:02:57;;;;;;;13.20;9.88;;;;;;;24.90;45.58;95587.47;6064870;28;109001;-67
2023/09/03 06:06:03;;;;;;;11.13;9.98;;;;;;;24.99;45.61;95590.94;6065142;28;108938;-71
2023/09/03 06:09:07;;;;;;;11.50;9.85;;;;;;;25.04;45.95;95596.19;6055424;28;108871;-68
2023/09/03 06:12:10;;;;;;;11.75;10.55;;;;;;;25.04;45.79;95593.50;6065111;28;108647;-67
2023/09/03 06:15:13;;;;;;;12.10;10.57;;;;;;;25.06;45.69;95593.19;6064688;28;108559;-67
2023/09/03 06:18:17;;;;;;;11.82;10.43;;;;;;;25.13;45.15;95590.03;6053806;28;109201;-70
2023/09/03 06:21:21;;;;;;;13.15;10.27;;;;;;;25.19;44.67;95588.78;6062803;28;109044;-69
2023/09/03 06:24:25;;;;;;;11.93;9.93;;;;;;;25.32;44.66;95598.59;6064853;28;109030;-68
2023/09/03 06:27:32;;;;;;;11.40;10.30;;;;;;;25.45;45.51;95602.28;6063685;28;108826;-68
2023/09/03 06:30:35;;;;;;;11.05;10.05;;;;;;;25.49;45.41;95603.22;6052414;28;110334;-68
2023/09/03 06:33:38;;;;;;;11.65;10.52;;;;;;;25.14;46.86;95599.66;6064120;28;108729;-68
2023/09/03 06:36:43;;;;;;;11.40;10.30;;;;;;;25.26;46.27;95605.22;6056328;28;109234;-67
2023/09/03 06:39:47;;;;;;;12.68;11.57;;;;;;;25.13;45.66;95608.78;6063854;28;108978;-68
2023/09/03 06:42:50;;;;;;;11.63;10.63;;;;;;;24.69;47.54;95613.97;6052106;28;108988;-68
2023/09/03 06:45:53;;;;;;;11.98;10.70;;;;;;;24.83;46.89;95602.38;6063268;28;109388;-67
2023/09/03 06:48:56;;;;;;;10.82;9.75;;;;;;;25.11;45.91;95600.28;6061732;28;108808;-67
2023/09/03 06:52:01;;;;;;;10.80;9.90;;;;;;;25.41;46.24;95604.78;6059782;28;110236;-65
2023/09/03 06:55:04;;;;;;;12.25;9.70;;;;;;;25.16;45.75;95610.84;6058000;28;108913;-65
2023/09/03 06:58:08;;;;;;;12.50;10.05;;;;;;;24.78;46.33;95606.00;6063310;28;108979;-68
2023/09/03 07:01:11;;;;;;;14.77;11.30;;;;;;;24.59;47.25;95602.75;6063118;28;109314;-68
2023/09/03 07:04:14;;;;;;;14.05;10.63;;;;;;;24.53;46.89;95603.94;6053007;28;109036;-67
2023/09/03 07:07:19;;;;;;;15.37;10.50;;;;;;;24.45;46.26;95608.97;6062855;28;109464;-67
2023/09/03 07:10:22;;;;;;;11.38;10.07;;;;;;;24.01;46.67;95601.75;6063757;28;108998;-66
2023/09/03 07:13:25;;;;;;;11.02;10.02;;;;;;;23.80;45.88;95604.09;6063177;28;108778;-68
2023/09/03 07:16:28;;;;;;;11.80;10.60;;;;;;;23.60;46.12;95604.56;6051995;28;108946;-69
2023/09/03 07:19:31;;;;;;;21.48;13.00;;;;;;;23.68;45.08;95601.16;6061980;28;108820;-72
2023/09/03 07:22:36;;;;;;;17.25;12.27;;;;;;;23.45;45.28;95603.03;6063854;28;108605;-68
2023/09/03 07:25:39;;;;;;;21.38;12.45;;;;;;;23.35;46.03;95597.88;6063898;28;108679;-62
2023/09/03 07:28:42;;;;;;;18.00;11.48;;;;;;;23.01;45.62;95599.06;6052854;28;108828;-65
2023/09/03 07:31:46;;;;;;;19.85;11.90;;;;;;;22.82;46.64;95594.94;6063295;28;108641;-69
2023/09/03 07:34:49;;;;;;;19.33;11.93;;;;;;;23.04;46.79;95589.72;6063256;28;108805;-65
2023/09/03 07:37:54;;;;;;;18.67;11.90;;;;;;;22.98;46.25;95593.56;6057274;28;109871;-66
2023/09/03 07:40:57;;;;;;;16.38;11.45;;;;;;;23.01;46.58;95598.28;6059010;28;108980;-66
2023/09/03 07:44:00;;;;;;;16.98;10.90;;;;;;;22.96;46.56;95603.75;6063308;28;109213;-65
2023/09/03 07:47:03;;;;;;;18.85;12.02;;;;;;;22.96;46.20;95596.53;6060959;28;109589;-66
2023/09/03 07:50:08;;;;;;;14.90;10.90;;;;;;;22.93;45.92;95599.00;6051689;28;108874;-64
2023/09/03 07:53:12;;;;;;;26.42;12.18;;;;;;;22.98;45.87;95601.56;6062882;28;108637;-64
2023/09/03 07:56:16;;;;;;;29.00;12.63;;;;;;;22.86;45.67;95599.41;6062963;28;109077;-64
2023/09/03 07:59:20;;;;;;;32.72;12.60;;;;;;;22.94;44.74;95597.91;6063153;28;108613;-64
2023/09/03 08:02:23;;;;;;;26.17;11.98;;;;;;;22.80;45.05;95592.56;6052265;28;110243;-63
2023/09/03 08:05:26;;;;;;;20.75;11.43;;;;;;;22.70;44.64;95593.56;6062319;28;109119;-64
2023/09/03 08:08:31;;;;;;;19.88;11.88;;;;;;;22.75;44.68;95589.22;6067508;28;108759;-63
2023/09/03 08:11:35;;;;;;;17.57;11.40;;;;;;;22.81;44.73;95593.34;6061619;28;108756;-63
2023/09/03 08:14:41;;;;;;;20.10;11.50;;;;;;;22.78;44.99;95591.28;6061143;28;109349;-64
2023/09/03 08:17:44;;;;;;;17.93;11.90;;;;;;;22.94;45.16;95588.03;6066092;28;109040;-63
2023/09/03 08:20:49;;;;;;;13.70;10.93;;;;;;;22.89;45.42;95579.34;6065923;28;108928;-64
2023/09/03 08:23:53;;;;;;;14.15;11.00;;;;;;;22.93;46.01;95583.00;6054922;28;110239;-63
2023/09/03 08:26:58;;;;;;;11.57;10.20;;;;;;;22.97;46.24;95583.97;6064066;28;109393;-63
2023/09/03 08:30:01;;;;;;;12.60;10.80;;;;;;;23.07;46.20;95585.66;6066825;28;108736;-61
2023/09/03 08:33:05;;;;;;;12.32;10.45;;;;;;;23.01;45.91;95579.59;6065723;28;108728;-63
2023/09/03 08:36:08;;;;;;;12.48;10.05;;;;;;;23.06;45.94;95573.41;6054660;28;109448;-63
2023/09/03 08:39:12;;;;;;;11.77;10.10;;;;;;;22.91;45.18;95567.28;6065487;28;108806;-62
2023/09/03 08:42:16;;;;;;;11.47;10.30;;;;;;;22.92;44.84;95568.06;6066723;28;108590;-62
2023/09/03 08:45:20;;;;;;;11.48;10.30;;;;;;;23.03;44.85;95572.13;6056704;28;110004;-61
2023/09/03 08:48:23;;;;;;;11.30;10.20;;;;;;;22.88;44.40;95556.41;6056033;28;109658;-61
2023/09/03 08:51:28;;;;;;;11.10;10.00;;;;;;;22.99;45.92;95563.09;6065601;28;108881;-61
2023/09/03 08:54:32;;;;;;;11.45;10.35;;;;;;;23.00;45.65;95556.69;6065950;28;108928;-62
2023/09/03 08:57:35;;;;;;;13.75;11.70;;;;;;;23.08;46.68;95549.84;6055597;28;109604;-64
2023/09/03 09:00:39;;;;;;;15.07;11.90;;;;;;;23.02;46.37;95546.50;6063691;28;108891;-61
2023/09/03 09:03:43;;;;;;;16.40;12.10;;;;;;;22.97;47.47;95541.25;6066274;28;109104;-61
2023/09/03 09:06:47;;;;;;;17.37;13.00;;;;;;;23.03;48.41;95533.97;6065674;28;108578;-61
2023/09/03 09:09:58;;;;;;;16.02;12.45;;;;;;;22.98;47.82;95530.28;6052330;28;109090;-61
2023/09/03 09:13:05;;;;;;;14.70;12.20;;;;;;;22.93;47.10;95526.94;6065228;28;109529;-61
2023/09/03 09:16:09;;;;;;;13.80;10.40;;;;;;;22.94;46.70;95520.50;6056971;28;109526;-62
2023/09/03 09:19:17;;;;;;;12.13;10.30;;;;;;;22.87;46.25;95518.25;6061885;28;110222;-61
2023/09/03 09:22:20;;;;;;;11.20;10.20;;;;;;;22.87;46.10;95517.47;6048153;28;109295;-61
2023/09/03 09:25:27;;;;;;;11.53;9.60;;;;;;;22.82;46.39;95521.00;6063924;28;109151;-61
2023/09/03 09:28:30;;;;;;;10.43;9.43;;;;;;;22.95;45.54;95520.22;6065346;28;108765;-61
2023/09/03 09:31:34;;;;;;;11.30;10.20;;;;;;;22.83;46.67;95503.91;6058669;28;108785;-61
2023/09/03 09:34:43;;;;;;;12.13;10.93;;;;;;;22.89;46.45;95507.28;6062330;28;108996;-62
2023/09/03 09:37:46;;;;;;;13.57;11.50;;;;;;;22.89;47.63;95507.28;6064393;28;109379;-61
2023/09/03 09:40:50;;;;;;;11.20;9.80;;;;;;;23.90;44.68;95501.50;6064806;28;108922;-64
2023/09/03 09:43:54;;;;;;;11.20;10.10;;;;;;;24.82;44.35;95494.53;6054755;28;108826;-64
2023/09/03 09:46:57;;;;;;;10.27;8.63;;;;;;;25.14;41.57;95487.94;6058698;28;108709;-64
2023/09/03 09:50:00;;;;;;;8.43;7.63;;;;;;;25.40;40.17;95490.69;6064254;28;108850;-65
2023/09/03 09:53:04;;;;;;;9.00;7.10;;;;;;;25.67;38.28;95482.28;6062748;28;108884;-64
2023/09/03 09:56:12;;;;;;;6.88;6.35;;;;;;;25.80;37.77;95491.25;6053957;28;108898;-63
2023/09/03 09:59:26;;;;;;;7.22;6.63;;;;;;;26.13;36.38;95477.31;6064086;28;108812;-66
2023/09/03 10:02:29;;;;;;;7.00;6.30;;;;;;;26.10;37.12;95473.38;6064864;28;108996;-64
2023/09/03 10:05:35;;;;;;;7.20;6.60;;;;;;;26.05;37.02;95465.53;6047886;28;109035;-65
2023/09/03 10:08:39;;;;;;;7.70;7.10;;;;;;;25.93;37.26;95468.06;6059036;28;111377;-65
2023/09/03 10:11:43;;;;;;;6.80;6.30;;;;;;;25.95;36.66;95455.09;6064872;28;108700;-64
2023/09/03 10:14:46;;;;;;;7.18;6.57;;;;;;;26.05;36.01;95460.16;6063808;28;109059;-64
2023/09/03 10:17:53;;;;;;;6.97;6.37;;;;;;;26.16;36.51;95445.28;6053457;28;108955;-64
2023/09/03 10:20:57;;;;;;;6.97;6.38;;;;;;;26.05;36.21;95437.91;6064472;28;108586;-63
2023/09/03 10:24:03;;;;;;;7.03;6.43;;;;;;;26.01;36.20;95432.38;6063388;28;108779;-64
2023/09/03 10:27:13;;;;;;;7.28;6.68;;;;;;;25.93;36.46;95431.28;6063120;28;108852;-63
2023/09/03 10:30:21;;;;;;;7.82;7.03;;;;;;;25.94;36.06;95440.91;6053465;28;108794;-64
2023/09/03 10:33:24;;;;;;;7.30;6.70;;;;;;;25.99;36.49;95438.03;6062777;28;108762;-65
2023/09/03 10:36:28;;;;;;;7.72;7.13;;;;;;;26.23;35.38;95431.38;6063071;28;108708;-64
2023/09/03 10:39:31;;;;;;;6.90;6.30;;;;;;;26.36;35.34;95429.56;6054470;28;108856;-64
2023/09/03 10:42:36;;;;;;;8.10;7.30;;;;;;;26.43;35.57;95427.16;6056661;28;109047;-64
2023/09/03 10:45:39;;;;;;;7.70;7.10;;;;;;;26.50;35.31;95425.53;6062458;28;108817;-65
2023/09/03 10:48:51;;;;;;;7.47;6.88;;;;;;;26.44;35.63;95418.78;6061363;28;108738;-62
2023/09/03 10:51:55;;;;;;;7.90;7.20;;;;;;;26.46;36.15;95416.56;6052235;28;109236;-61
2023/09/03 10:55:15;;;;;;;8.00;7.20;;;;;;;26.52;35.96;95409.09;6065961;28;108684;-61
2023/09/03 10:58:35;;;;;;;7.97;7.20;;;;;;;26.52;36.44;95399.16;6063089;28;108845;-61
2023/09/03 11:01:38;;;;;;;7.45;6.75;;;;;;;26.52;36.35;95399.16;6050045;28;108650;-61
2023/09/03 11:05:15;;;;;;;9.18;6.50;;;;;;;26.54;36.14;95390.75;6051837;28;108798;-61
2023/09/03 11:08:29;;;;;;;7.60;7.00;;;;;;;26.51;36.80;95389.53;6064131;28;108686;-60
2023/09/03 11:11:33;;;;;;;6.72;6.22;;;;;;;26.53;36.78;95386.50;6048751;28;109036;-60
2023/09/03 11:14:38;;;;;;;7.20;6.50;;;;;;;26.47;36.78;95377.09;6052522;28;108750;-60
2023/09/03 11:17:42;;;;;;;7.28;6.68;;;;;;;26.48;37.50;95381.34;6056996;28;109055;-60
2023/09/03 11:20:46;;;;;;;8.10;7.40;;;;;;;26.52;37.66;95385.72;6062793;28;108700;-60
2023/09/03 11:24:00;;;;;;;7.68;6.97;;;;;;;26.51;37.66;95380.69;6063667;28;108588;-60
2023/09/03 11:27:07;;;;;;;7.40;6.80;;;;;;;26.50;37.51;95381.81;6051109;28;109131;-61
2023/09/03 11:30:12;;;;;;;7.45;6.85;;;;;;;26.46;38.33;95364.78;6062636;28;109605;-61
2023/09/03 11:33:25;;;;;;;7.80;7.20;;;;;;;26.48;38.14;95365.25;6063255;28;108643;-61
2023/09/03 11:36:29;;;;;;;7.55;6.95;;;;;;;26.49;38.71;95356.84;6057896;28;108722;-61
2023/09/03 11:39:32;;;;;;;11.65;10.73;;;;;;;26.40;38.33;95353.47;6058250;28;108967;-61
2023/09/03 11:42:35;;;;;;;10.55;9.75;;;;;;;26.39;39.22;95349.22;6062381;28;109400;-61
2023/09/03 11:45:40;;;;;;;10.60;9.60;;;;;;;26.38;39.26;95352.19;6061983;28;108817;-62
2023/09/03 11:48:49;;;;;;;10.40;9.60;;;;;;;26.41;38.99;95346.19;6052412;28;109721;-61
2023/09/03 11:51:52;;;;;;;10.73;9.83;;;;;;;26.41;39.35;95343.50;6049961;28;108989;-60
2023/09/03 11:54:56;;;;;;;10.02;9.23;;;;;;;26.46;39.47;95341.41;6062943;28;108685;-60
2023/09/03 11:58:01;;;;;;;9.50;8.80;;;;;;;26.49;38.75;95340.75;6062855;28;108716;-60
2023/09/03 12:01:07;;;;;;;9.80;9.00;;;;;;;26.52;38.84;95332.03;6050742;28;109061;-63
2023/09/03 12:04:11;;;;;;;10.00;9.20;;;;;;;26.52;39.28;95324.00;6062598;28;108657;-63
2023/09/03 12:07:15;;;;;;;8.90;8.10;;;;;;;26.50;39.04;95314.69;6061836;28;110294;-63
2023/09/03 12:10:19;;;;;;;9.10;8.40;;;;;;;26.51;39.18;95313.59;6057523;28;108933;-64
2023/09/03 12:13:32;;;;;;;8.70;8.10;;;;;;;26.52;39.38;95312.47;6056581;28;108848;-63
2023/09/03 12:16:47;;;;;;;9.33;8.63;;;;;;;26.47;39.48;95305.41;6062021;28;108803;-63
2023/09/03 12:19:51;;;;;;;9.97;9.17;;;;;;;26.45;39.57;95307.63;6062147;28;109070;-63
2023/09/03 12:22:54;;;;;;;11.60;10.70;;;;;;;26.43;39.23;95301.03;6051038;28;108937;-64
2023/09/03 12:25:57;;;;;;;11.68;10.68;;;;;;;26.49;39.35;95300.50;6061310;28;108826;-64
2023/09/03 12:29:01;;;;;;;11.10;10.10;;;;;;;26.50;39.59;95299.38;6061194;28;109243;-64
2023/09/03 12:32:07;;;;;;;10.95;10.10;;;;;;;26.52;39.99;95288.31;6062186;28;109013;-63
2023/09/03 12:35:16;;;;;;;10.63;9.63;;;;;;;26.52;40.07;95296.38;6051503;28;108815;-64
2023/09/03 12:38:19;;;;;;;10.20;9.40;;;;;;;26.54;40.29;95270.75;6060726;28;108933;-64
2023/09/03 12:41:24;;;;;;;9.25;8.55;;;;;;;26.57;39.59;95282.75;6061500;28;108745;-64
2023/09/03 12:44:27;;;;;;;10.80;9.80;;;;;;;26.58;39.47;95284.34;6055104;28;108996;-64
2023/09/03 12:47:32;;;;;;;12.10;11.10;;;;;;;26.55;39.73;95293.06;6056336;28;109093;-64
2023/09/03 12:50:35;;;;;;;12.27;11.37;;;;;;;26.56;39.14;95294.63;6062269;28;109255;-64
2023/09/03 12:53:39;;;;;;;12.60;11.40;;;;;;;26.54;39.32;95283.41;6065656;28;109008;-64
2023/09/03 12:56:42;;;;;;;13.70;12.50;;;;;;;26.56;39.24;95281.19;6056111;28;110617;-64
2023/09/03 12:59:46;;;;;;;12.88;11.88;;;;;;;26.55;39.24;95272.34;6064940;28;108675;-64
2023/09/03 13:02:50;;;;;;;13.20;12.10;;;;;;;26.54;39.56;95267.28;6066111;28;108747;-64
2023/09/03 13:05:53;;;;;;;13.50;12.40;;;;;;;26.57;39.13;95264.75;6066258;28;108747;-64
2023/09/03 13:08:56;;;;;;;12.75;11.75;;;;;;;26.57;39.25;95263.97;6055526;28;109017;-61
2023/09/03 13:11:59;;;;;;;13.00;11.90;;;;;;;26.57;39.82;95258.59;6064755;28;108712;-61
2023/09/03 13:15:03;;;;;;;11.73;10.82;;;;;;;26.59;39.92;95259.06;6065860;28;108933;-61
2023/09/03 13:18:07;;;;;;;12.25;11.35;;;;;;;26.62;39.66;95250.34;6066681;28;108857;-62
2023/09/03 13:21:11;;;;;;;12.00;11.00;;;;;;;26.64;39.90;95248.13;6058683;28;108853;-60
2023/09/03 13:24:14;;;;;;;11.50;10.60;;;;;;;26.66;39.75;95250.50;6065738;28;108846;-62
2023/09/03 13:27:17;;;;;;;11.43;10.52;;;;;;;26.67;39.45;95242.09;6064948;28;108808;-60
2023/09/03 13:30:20;;;;;;;11.82;10.82;;;;;;;26.65;39.99;95238.97;6054525;28;109155;-61
2023/09/03 13:33:27;;;;;;;11.50;10.50;;;;;;;26.66;40.13;95237.84;6064778;28;108926;-61
2023/09/03 13:36:30;;;;;;;10.88;9.98;;;;;;;26.65;40.68;95238.19;6064576;28;108761;-62
2023/09/03 13:39:33;;;;;;;10.90;10.00;;;;;;;26.63;40.36;95238.50;6068643;28;108928;-61
2023/09/03 13:42:36;;;;;;;10.77;9.77;;;;;;;26.63;40.46;95241.19;6052917;28;108916;-61
2023/09/03 13:45:40;;;;;;;10.90;9.90;;;;;;;26.58;37.91;95236.81;6064950;28;108921;-62
2023/09/03 13:48:44;;;;;;;12.90;10.20;;;;;;;26.64;38.57;95240.09;6062531;28;108837;-61
2023/09/03 13:51:48;;;;;;;11.50;10.30;;;;;;;26.66;38.73;95237.06;6064049;28;108866;-61
2023/09/03 13:54:51;;;;;;;11.20;10.00;;;;;;;26.69;37.95;95237.19;6053298;28;109043;-61
2023/09/03 13:57:55;;;;;;;11.27;10.10;;;;;;;26.68;37.27;95235.63;6064705;28;108846;-61
2023/09/03 14:00:58;;;;;;;10.85;8.70;;;;;;;26.64;38.03;95234.72;6062637;28;109293;-60
2023/09/03 14:04:02;;;;;;;21.33;11.00;;;;;;;26.56;37.85;95227.50;6053273;28;109920;-62
2023/09/03 14:07:05;;;;;;;15.90;9.60;;;;;;;26.49;37.57;95232.59;6058835;28;108879;-62